Bear Mountain, New York
Current Conditions -  °F | °C
As of 10:45 AM on Saturday 25 Oct 2014 (Local Time) from KSWF Reporting Station
Clear Clear  
Wind Chill: 55°   Ceiling: Unl
Heat Index: 55°   Visibility: 20mi
Dew Point: 45°   Wind: 122mph
Humidity: 67%   Direction: 270°W
Pressure: 29.83"   Gusts: NA
Location:  41.31°N, 73.99°W
Report Text: KSWF 251445Z 270106KT 20SM SKC 13/07 A2983
Loading
Personal Weather Stations






























Interactive Weather Map
Tropical Storm Tracking
New forecast layout! Learn more

10-Day Weather Forecast

Advertisements
Track Severe Weather on mobile